sensor_id;sensor_type;location;lat;lon;timestamp;temperature;humidity
23149;DHT22;11743;51.228;22.498;2024-02-28T00:00:18;8.00;99.90
23149;DHT22;11743;51.228;22.498;2024-02-28T00:00:40;8.00;99.90
23149;DHT22;11743;51.228;22.498;2024-02-28T00:01:02;7.90;99.90
23149;DHT22;11743;51.228;22.498;2024-02-28T00:01:24;7.90;99.90
23149;DHT22;11743;51.228;22.498;2024-02-28T00:01:53;7.90;99.90
23149;DHT22;11743;51.228;22.498;2024-02-28T00:02:14;7.90;99.90
23149;DHT22;11743;51.228;22.498;2024-02-28T00:02:36;7.90;99.90
23149;DHT22;11743;51.228;22.498;2024-02-28T00:02:58;7.90;99.90
23149;DHT22;11743;51.228;22.498;2024-02-28T00:03:20;7.90;99.90
23149;DHT22;11743;51.228;22.498;2024-02-28T00:03:43;7.90;99.90
23149;DHT22;11743;51.228;22.498;2024-02-28T00:04:06;7.90;99.90
23149;DHT22;11743;51.228;22.498;2024-02-28T00:04:27;8.10;99.90
23149;DHT22;11743;51.228;22.498;2024-02-28T00:04:49;7.90;99.90
23149;DHT22;11743;51.228;22.498;2024-02-28T00:05:11;7.90;99.90
23149;DHT22;11743;51.228;22.498;2024-02-28T00:05:33;7.90;99.90
23149;DHT22;11743;51.228;22.498;2024-02-28T00:05:55;7.90;99.90
23149;DHT22;11743;51.228;22.498;2024-02-28T00:06:17;7.90;99.90
23149;DHT22;11743;51.228;22.498;2024-02-28T00:06:39;7.90;99.90
23149;DHT22;11743;51.228;22.498;2024-02-28T00:07:01;7.90;99.90
23149;DHT22;11743;51.228;22.498;2024-02-28T00:07:23;7.90;99.90
23149;DHT22;11743;51.228;22.498;2024-02-28T00:07:45;7.90;99.90
23149;DHT22;11743;51.228;22.498;2024-02-28T00:08:08;7.80;99.90
23149;DHT22;11743;51.228;22.498;2024-02-28T00:08:30;7.90;99.90
23149;DHT22;11743;51.228;22.498;2024-02-28T00:08:52;7.80;99.90
23149;DHT22;11743;51.228;22.498;2024-02-28T00:09:15;7.80;99.90
23149;DHT22;11743;51.228;22.498;2024-02-28T00:09:38;7.80;99.90
23149;DHT22;11743;51.228;22.498;2024-02-28T00:10:00;7.80;99.90
23149;DHT22;11743;51.228;22.498;2024-02-28T00:10:21;7.80;99.90
23149;DHT22;11743;51.228;22.498;2024-02-28T00:10:43;7.80;99.90
23149;DHT22;11743;51.228;22.498;2024-02-28T00:11:05;7.80;99.90
23149;DHT22;11743;51.228;22.498;2024-02-28T00:11:27;7.80;99.90
23149;DHT22;11743;51.228;22.498;2024-02-28T00:11:49;7.80;99.90
23149;DHT22;11743;51.228;22.498;2024-02-28T00:12:10;7.80;99.90
23149;DHT22;11743;51.228;22.498;2024-02-28T00:12:32;7.80;99.90
23149;DHT22;11743;51.228;22.498;2024-02-28T00:12:55;7.80;99.90
23149;DHT22;11743;51.228;22.498;2024-02-28T00:13:17;7.80;99.90
23149;DHT22;11743;51.228;22.498;2024-02-28T00:13:41;7.80;99.90
23149;DHT22;11743;51.228;22.498;2024-02-28T00:14:03;7.80;99.90
23149;DHT22;11743;51.228;22.498;2024-02-28T00:14:25;7.70;99.90
23149;DHT22;11743;51.228;22.498;2024-02-28T00:14:47;7.80;99.90
23149;DHT22;11743;51.228;22.498;2024-02-28T00:15:09;7.70;99.90
23149;DHT22;11743;51.228;22.498;2024-02-28T00:15:32;7.80;99.90
23149;DHT22;11743;51.228;22.498;2024-02-28T00:15:57;7.70;99.90
23149;DHT22;11743;51.228;22.498;2024-02-28T00:16:19;7.70;99.90
23149;DHT22;11743;51.228;22.498;2024-02-28T00:16:44;8.90;99.90
23149;DHT22;11743;51.228;22.498;2024-02-28T00:17:06;7.70;99.90
23149;DHT22;11743;51.228;22.498;2024-02-28T00:17:29;7.70;99.90
23149;DHT22;11743;51.228;22.498;2024-02-28T00:17:54;7.70;99.90
23149;DHT22;11743;51.228;22.498;2024-02-28T00:18:16;7.80;99.90
23149;DHT22;11743;51.228;22.498;2024-02-28T00:18:38;7.70;99.90
23149;DHT22;11743;51.228;22.498;2024-02-28T00:19:00;7.70;99.90
23149;DHT22;11743;51.228;22.498;2024-02-28T00:19:22;7.70;99.90
23149;DHT22;11743;51.228;22.498;2024-02-28T00:19:46;7.70;99.90
23149;DHT22;11743;51.228;22.498;2024-02-28T00:20:08;7.70;99.90
23149;DHT22;11743;51.228;22.498;2024-02-28T00:20:31;7.70;99.90
23149;DHT22;11743;51.228;22.498;2024-02-28T00:20:53;7.60;99.90
23149;DHT22;11743;51.228;22.498;2024-02-28T00:21:15;7.70;99.90
23149;DHT22;11743;51.228;22.498;2024-02-28T00:21:41;7.60;99.90
23149;DHT22;11743;51.228;22.498;2024-02-28T00:22:03;7.70;99.90
23149;DHT22;11743;51.228;22.498;2024-02-28T00:22:25;7.60;99.90
23149;DHT22;11743;51.228;22.498;2024-02-28T00:22:46;7.60;99.90
23149;DHT22;11743;51.228;22.498;2024-02-28T00:23:08;7.60;99.90
23149;DHT22;11743;51.228;22.498;2024-02-28T00:23:30;7.60;99.90
23149;DHT22;11743;51.228;22.498;2024-02-28T00:23:52;7.60;99.90
23149;DHT22;11743;51.228;22.498;2024-02-28T00:24:15;7.60;99.90
23149;DHT22;11743;51.228;22.498;2024-02-28T00:24:36;7.60;99.90
23149;DHT22;11743;51.228;22.498;2024-02-28T00:24:58;7.60;99.90
23149;DHT22;11743;51.228;22.498;2024-02-28T00:25:22;7.50;99.90
23149;DHT22;11743;51.228;22.498;2024-02-28T00:25:44;7.60;99.90
23149;DHT22;11743;51.228;22.498;2024-02-28T00:26:05;7.60;99.90
23149;DHT22;11743;51.228;22.498;2024-02-28T00:26:27;7.60;99.90
23149;DHT22;11743;51.228;22.498;2024-02-28T00:26:52;7.60;99.90
23149;DHT22;11743;51.228;22.498;2024-02-28T00:27:14;7.60;99.90
23149;DHT22;11743;51.228;22.498;2024-02-28T00:27:36;7.50;99.90
23149;DHT22;11743;51.228;22.498;2024-02-28T00:27:58;7.50;99.90
23149;DHT22;11743;51.228;22.498;2024-02-28T00:28:20;7.50;99.90
23149;DHT22;11743;51.228;22.498;2024-02-28T00:28:41;7.50;99.90
23149;DHT22;11743;51.228;22.498;2024-02-28T00:29:03;7.50;99.90
23149;DHT22;11743;51.228;22.498;2024-02-28T00:29:25;7.50;99.90
23149;DHT22;11743;51.228;22.498;2024-02-28T00:29:47;7.50;99.90
23149;DHT22;11743;51.228;22.498;2024-02-28T00:30:09;7.50;99.90
23149;DHT22;11743;51.228;22.498;2024-02-28T00:30:31;7.50;99.90
23149;DHT22;11743;51.228;22.498;2024-02-28T00:30:57;7.50;99.90
23149;DHT22;11743;51.228;22.498;2024-02-28T00:31:19;7.50;99.90
23149;DHT22;11743;51.228;22.498;2024-02-28T00:31:40;7.50;99.90
23149;DHT22;11743;51.228;22.498;2024-02-28T00:32:02;7.50;99.90
23149;DHT22;11743;51.228;22.498;2024-02-28T00:32:24;7.50;99.90
23149;DHT22;11743;51.228;22.498;2024-02-28T00:32:46;7.50;99.90
23149;DHT22;11743;51.228;22.498;2024-02-28T00:33:08;7.40;99.90
23149;DHT22;11743;51.228;22.498;2024-02-28T00:33:30;7.40;99.90
23149;DHT22;11743;51.228;22.498;2024-02-28T00:33:51;7.60;99.90
23149;DHT22;11743;51.228;22.498;2024-02-28T00:34:13;7.70;99.90
23149;DHT22;11743;51.228;22.498;2024-02-28T00:34:35;7.40;99.90
23149;DHT22;11743;51.228;22.498;2024-02-28T00:34:57;7.40;99.90
23149;DHT22;11743;51.228;22.498;2024-02-28T00:35:19;7.40;99.90
23149;DHT22;11743;51.228;22.498;2024-02-28T00:35:40;7.40;99.90
23149;DHT22;11743;51.228;22.498;2024-02-28T00:36:04;7.40;99.90
23149;DHT22;11743;51.228;22.498;2024-02-28T00:36:25;7.40;99.90
23149;DHT22;11743;51.228;22.498;2024-02-28T00:36:51;7.40;99.90
23149;DHT22;11743;51.228;22.498;2024-02-28T00:37:17;7.40;99.90
23149;DHT22;11743;51.228;22.498;2024-02-28T00:37:39;7.40;99.90
23149;DHT22;11743;51.228;22.498;2024-02-28T00:38:01;7.40;99.90
23149;DHT22;11743;51.228;22.498;2024-02-28T00:38:23;7.30;99.90
23149;DHT22;11743;51.228;22.498;2024-02-28T00:38:45;7.30;99.90
23149;DHT22;11743;51.228;22.498;2024-02-28T00:39:06;7.30;99.90
23149;DHT22;11743;51.228;22.498;2024-02-28T00:39:28;7.60;99.90
23149;DHT22;11743;51.228;22.498;2024-02-28T00:39:50;7.40;99.90
23149;DHT22;11743;51.228;22.498;2024-02-28T00:40:12;7.30;99.90
23149;DHT22;11743;51.228;22.498;2024-02-28T00:40:34;7.30;99.90
23149;DHT22;11743;51.228;22.498;2024-02-28T00:40:56;7.30;99.90
23149;DHT22;11743;51.228;22.498;2024-02-28T00:41:18;7.30;99.90
23149;DHT22;11743;51.228;22.498;2024-02-28T00:41:40;7.30;99.90
23149;DHT22;11743;51.228;22.498;2024-02-28T00:42:01;7.30;99.90
23149;DHT22;11743;51.228;22.498;2024-02-28T00:42:23;7.30;99.90
23149;DHT22;11743;51.228;22.498;2024-02-28T00:42:45;7.10;99.90
23149;DHT22;11743;51.228;22.498;2024-02-28T00:43:07;7.30;99.90
23149;DHT22;11743;51.228;22.498;2024-02-28T00:43:29;7.20;99.90
23149;DHT22;11743;51.228;22.498;2024-02-28T00:43:51;7.30;99.90
23149;DHT22;11743;51.228;22.498;2024-02-28T00:44:13;7.30;99.90
23149;DHT22;11743;51.228;22.498;2024-02-28T00:44:35;7.30;99.90
23149;DHT22;11743;51.228;22.498;2024-02-28T00:44:56;7.50;99.90
23149;DHT22;11743;51.228;22.498;2024-02-28T00:45:18;7.30;99.90
23149;DHT22;11743;51.228;22.498;2024-02-28T00:45:40;7.30;99.90
23149;DHT22;11743;51.228;22.498;2024-02-28T00:46:02;7.30;99.90
23149;DHT22;11743;51.228;22.498;2024-02-28T00:46:25;7.20;99.90
23149;DHT22;11743;51.228;22.498;2024-02-28T00:46:47;7.20;99.90
23149;DHT22;11743;51.228;22.498;2024-02-28T00:47:09;7.20;99.90
23149;DHT22;11743;51.228;22.498;2024-02-28T00:47:31;7.20;99.90
23149;DHT22;11743;51.228;22.498;2024-02-28T00:47:54;7.20;99.90
23149;DHT22;11743;51.228;22.498;2024-02-28T00:48:17;7.20;99.90
23149;DHT22;11743;51.228;22.498;2024-02-28T00:48:39;7.20;99.90
23149;DHT22;11743;51.228;22.498;2024-02-28T00:49:01;7.20;99.90
23149;DHT22;11743;51.228;22.498;2024-02-28T00:49:23;7.20;99.90
23149;DHT22;11743;51.228;22.498;2024-02-28T00:49:45;7.20;99.90
23149;DHT22;11743;51.228;22.498;2024-02-28T00:50:07;7.10;99.90
23149;DHT22;11743;51.228;22.498;2024-02-28T00:50:29;7.20;99.90
23149;DHT22;11743;51.228;22.498;2024-02-28T00:50:51;7.20;99.90
23149;DHT22;11743;51.228;22.498;2024-02-28T00:51:13;7.20;99.90
23149;DHT22;11743;51.228;22.498;2024-02-28T00:51:35;7.10;99.90
23149;DHT22;11743;51.228;22.498;2024-02-28T00:51:59;7.20;99.90
23149;DHT22;11743;51.228;22.498;2024-02-28T00:52:20;7.30;99.90
23149;DHT22;11743;51.228;22.498;2024-02-28T00:52:42;7.10;99.90
23149;DHT22;11743;51.228;22.498;2024-02-28T00:53:04;7.10;99.90
23149;DHT22;11743;51.228;22.498;2024-02-28T00:53:26;7.10;99.90
23149;DHT22;11743;51.228;22.498;2024-02-28T00:53:48;7.10;99.90
23149;DHT22;11743;51.228;22.498;2024-02-28T00:54:10;7.10;99.90
23149;DHT22;11743;51.228;22.498;2024-02-28T00:54:31;7.10;99.90
23149;DHT22;11743;51.228;22.498;2024-02-28T00:54:53;7.10;99.90
23149;DHT22;11743;51.228;22.498;2024-02-28T00:55:15;7.10;99.90
23149;DHT22;11743;51.228;22.498;2024-02-28T00:55:37;7.10;99.90
23149;DHT22;11743;51.228;22.498;2024-02-28T00:55:59;7.10;99.90
23149;DHT22;11743;51.228;22.498;2024-02-28T00:56:21;7.20;99.90
23149;DHT22;11743;51.228;22.498;2024-02-28T00:56:42;7.10;99.90
23149;DHT22;11743;51.228;22.498;2024-02-28T00:57:04;7.10;99.90
23149;DHT22;11743;51.228;22.498;2024-02-28T00:57:26;7.10;99.90
23149;DHT22;11743;51.228;22.498;2024-02-28T00:57:48;7.10;99.90
23149;DHT22;11743;51.228;22.498;2024-02-28T00:58:10;7.10;99.90
23149;DHT22;11743;51.228;22.498;2024-02-28T00:58:32;7.10;99.90
23149;DHT22;11743;51.228;22.498;2024-02-28T00:58:54;7.10;99.90
23149;DHT22;11743;51.228;22.498;2024-02-28T00:59:16;7.10;99.90
23149;DHT22;11743;51.228;22.498;2024-02-28T00:59:38;7.10;99.90
23149;DHT22;11743;51.228;22.498;2024-02-28T01:00:00;7.10;99.90
23149;DHT22;11743;51.228;22.498;2024-02-28T01:00:21;7.10;99.90
23149;DHT22;11743;51.228;22.498;2024-02-28T01:00:43;7.00;99.90
23149;DHT22;11743;51.228;22.498;2024-02-28T01:01:05;7.00;99.90
23149;DHT22;11743;51.228;22.498;2024-02-28T01:01:28;7.00;99.90
23149;DHT22;11743;51.228;22.498;2024-02-28T01:01:50;7.00;99.90
23149;DHT22;11743;51.228;22.498;2024-02-28T01:02:13;7.00;99.90
23149;DHT22;11743;51.228;22.498;2024-02-28T01:02:35;7.00;99.90
23149;DHT22;11743;51.228;22.498;2024-02-28T01:02:56;7.00;99.90
23149;DHT22;11743;51.228;22.498;2024-02-28T01:03:18;7.00;99.90
23149;DHT22;11743;51.228;22.498;2024-02-28T01:03:40;7.00;99.90
23149;DHT22;11743;51.228;22.498;2024-02-28T01:04:02;7.00;99.90
23149;DHT22;11743;51.228;22.498;2024-02-28T01:04:24;7.00;99.90
23149;DHT22;11743;51.228;22.498;2024-02-28T01:04:45;7.00;99.90
23149;DHT22;11743;51.228;22.498;2024-02-28T01:05:07;7.20;99.90
23149;DHT22;11743;51.228;22.498;2024-02-28T01:05:30;7.00;99.90
23149;DHT22;11743;51.228;22.498;2024-02-28T01:05:52;7.00;99.90
23149;DHT22;11743;51.228;22.498;2024-02-28T01:06:14;7.00;99.90
23149;DHT22;11743;51.228;22.498;2024-02-28T01:06:38;7.10;99.90
23149;DHT22;11743;51.228;22.498;2024-02-28T01:07:00;7.00;99.90
23149;DHT22;11743;51.228;22.498;2024-02-28T01:07:22;7.00;99.90
23149;DHT22;11743;51.228;22.498;2024-02-28T01:07:43;7.00;99.90
23149;DHT22;11743;51.228;22.498;2024-02-28T01:08:06;7.00;99.90
23149;DHT22;11743;51.228;22.498;2024-02-28T01:08:27;7.00;99.90
23149;DHT22;11743;51.228;22.498;2024-02-28T01:08:49;7.00;99.90
23149;DHT22;11743;51.228;22.498;2024-02-28T01:09:11;7.00;99.90
23149;DHT22;11743;51.228;22.498;2024-02-28T01:09:33;7.00;99.90
23149;DHT22;11743;51.228;22.498;2024-02-28T01:09:55;7.00;99.90
23149;DHT22;11743;51.228;22.498;2024-02-28T01:10:17;7.00;99.90
23149;DHT22;11743;51.228;22.498;2024-02-28T01:10:39;7.00;99.90
23149;DHT22;11743;51.228;22.498;2024-02-28T01:11:00;7.00;99.90
23149;DHT22;11743;51.228;22.498;2024-02-28T01:11:22;7.10;99.90
23149;DHT22;11743;51.228;22.498;2024-02-28T01:11:44;7.00;99.90
23149;DHT22;11743;51.228;22.498;2024-02-28T01:12:06;7.00;99.90
23149;DHT22;11743;51.228;22.498;2024-02-28T01:12:28;7.00;99.90
23149;DHT22;11743;51.228;22.498;2024-02-28T01:12:49;7.00;99.90
23149;DHT22;11743;51.228;22.498;2024-02-28T01:13:12;7.10;99.90
23149;DHT22;11743;51.228;22.498;2024-02-28T01:13:33;7.00;99.90
23149;DHT22;11743;51.228;22.498;2024-02-28T01:13:55;7.10;99.90
23149;DHT22;11743;51.228;22.498;2024-02-28T01:14:17;7.10;99.90
23149;DHT22;11743;51.228;22.498;2024-02-28T01:14:38;7.10;99.90
23149;DHT22;11743;51.228;22.498;2024-02-28T01:15:00;7.10;99.90
23149;DHT22;11743;51.228;22.498;2024-02-28T01:15:22;7.10;99.90
23149;DHT22;11743;51.228;22.498;2024-02-28T01:15:44;7.10;99.90
23149;DHT22;11743;51.228;22.498;2024-02-28T01:16:06;7.10;99.90
23149;DHT22;11743;51.228;22.498;2024-02-28T01:16:28;7.10;99.90
23149;DHT22;11743;51.228;22.498;2024-02-28T01:16:50;7.10;99.90
23149;DHT22;11743;51.228;22.498;2024-02-28T01:17:12;7.10;99.90
23149;DHT22;11743;51.228;22.498;2024-02-28T01:17:34;7.20;99.90
23149;DHT22;11743;51.228;22.498;2024-02-28T01:17:56;7.20;99.90
23149;DHT22;11743;51.228;22.498;2024-02-28T01:18:18;7.10;99.90
23149;DHT22;11743;51.228;22.498;2024-02-28T01:18:39;7.20;99.90
23149;DHT22;11743;51.228;22.498;2024-02-28T01:19:01;7.20;99.90
23149;DHT22;11743;51.228;22.498;2024-02-28T01:19:24;7.20;99.90
23149;DHT22;11743;51.228;22.498;2024-02-28T01:19:46;7.20;99.90
23149;DHT22;11743;51.228;22.498;2024-02-28T01:20:08;7.20;99.90
23149;DHT22;11743;51.228;22.498;2024-02-28T01:20:30;7.20;99.90
23149;DHT22;11743;51.228;22.498;2024-02-28T01:20:52;7.10;99.90
23149;DHT22;11743;51.228;22.498;2024-02-28T01:21:15;7.20;99.90
23149;DHT22;11743;51.228;22.498;2024-02-28T01:21:38;7.10;99.90
23149;DHT22;11743;51.228;22.498;2024-02-28T01:22:00;7.20;99.90
23149;DHT22;11743;51.228;22.498;2024-02-28T01:22:22;7.10;99.90
23149;DHT22;11743;51.228;22.498;2024-02-28T01:22:44;7.10;99.90
23149;DHT22;11743;51.228;22.498;2024-02-28T01:23:05;7.20;99.90
23149;DHT22;11743;51.228;22.498;2024-02-28T01:23:27;7.20;99.90
23149;DHT22;11743;51.228;22.498;2024-02-28T01:23:49;7.20;99.90
23149;DHT22;11743;51.228;22.498;2024-02-28T01:24:11;7.20;99.90
23149;DHT22;11743;51.228;22.498;2024-02-28T01:24:33;7.20;99.90
23149;DHT22;11743;51.228;22.498;2024-02-28T01:24:55;7.10;99.90
23149;DHT22;11743;51.228;22.498;2024-02-28T01:25:17;7.10;99.90
23149;DHT22;11743;51.228;22.498;2024-02-28T01:25:40;7.10;99.90
23149;DHT22;11743;51.228;22.498;2024-02-28T01:26:01;7.20;99.90
23149;DHT22;11743;51.228;22.498;2024-02-28T01:26:27;7.20;99.90
23149;DHT22;11743;51.228;22.498;2024-02-28T01:26:49;7.10;99.90
23149;DHT22;11743;51.228;22.498;2024-02-28T01:27:11;7.10;99.90
23149;DHT22;11743;51.228;22.498;2024-02-28T01:27:33;7.10;99.90
23149;DHT22;11743;51.228;22.498;2024-02-28T01:27:56;7.10;99.90
23149;DHT22;11743;51.228;22.498;2024-02-28T01:28:19;7.10;99.90
23149;DHT22;11743;51.228;22.498;2024-02-28T01:28:41;7.10;99.90
23149;DHT22;11743;51.228;22.498;2024-02-28T01:29:04;7.10;99.90
23149;DHT22;11743;51.228;22.498;2024-02-28T01:29:26;7.10;99.90
23149;DHT22;11743;51.228;22.498;2024-02-28T01:29:48;7.10;99.90
23149;DHT22;11743;51.228;22.498;2024-02-28T01:30:10;7.10;99.90
23149;DHT22;11743;51.228;22.498;2024-02-28T01:30:32;7.10;99.90
23149;DHT22;11743;51.228;22.498;2024-02-28T01:30:54;7.10;99.90
23149;DHT22;11743;51.228;22.498;2024-02-28T01:31:16;7.10;99.90
23149;DHT22;11743;51.228;22.498;2024-02-28T01:31:38;7.10;99.90
23149;DHT22;11743;51.228;22.498;2024-02-28T01:31:59;7.10;99.90
23149;DHT22;11743;51.228;22.498;2024-02-28T01:32:21;7.10;99.90
23149;DHT22;11743;51.228;22.498;2024-02-28T01:32:43;7.10;99.90
23149;DHT22;11743;51.228;22.498;2024-02-28T01:33:05;7.20;99.90
23149;DHT22;11743;51.228;22.498;2024-02-28T01:33:27;7.10;99.90
23149;DHT22;11743;51.228;22.498;2024-02-28T01:33:49;7.10;99.90
23149;DHT22;11743;51.228;22.498;2024-02-28T01:34:11;7.10;99.90
23149;DHT22;11743;51.228;22.498;2024-02-28T01:34:33;7.00;99.90
23149;DHT22;11743;51.228;22.498;2024-02-28T01:34:55;7.00;99.90
23149;DHT22;11743;51.228;22.498;2024-02-28T01:35:17;7.00;99.90
23149;DHT22;11743;51.228;22.498;2024-02-28T01:35:39;7.10;99.90
23149;DHT22;11743;51.228;22.498;2024-02-28T01:36:01;7.00;99.90
23149;DHT22;11743;51.228;22.498;2024-02-28T01:36:23;7.10;99.90
23149;DHT22;11743;51.228;22.498;2024-02-28T01:36:45;7.00;99.90
23149;DHT22;11743;51.228;22.498;2024-02-28T01:37:07;7.10;99.90
23149;DHT22;11743;51.228;22.498;2024-02-28T01:37:28;7.00;99.90
23149;DHT22;11743;51.228;22.498;2024-02-28T01:37:50;7.00;99.90
23149;DHT22;11743;51.228;22.498;2024-02-28T01:38:12;7.00;99.90
23149;DHT22;11743;51.228;22.498;2024-02-28T01:38:34;7.00;99.90
23149;DHT22;11743;51.228;22.498;2024-02-28T01:38:56;7.00;99.90
23149;DHT22;11743;51.228;22.498;2024-02-28T01:39:18;7.00;99.90
23149;DHT22;11743;51.228;22.498;2024-02-28T01:39:40;7.00;99.90
23149;DHT22;11743;51.228;22.498;2024-02-28T01:40:02;6.90;99.90
23149;DHT22;11743;51.228;22.498;2024-02-28T01:40:25;7.00;99.90
23149;DHT22;11743;51.228;22.498;2024-02-28T01:40:47;6.90;99.90
23149;DHT22;11743;51.228;22.498;2024-02-28T01:41:09;6.90;99.90
23149;DHT22;11743;51.228;22.498;2024-02-28T01:41:31;6.90;99.90
23149;DHT22;11743;51.228;22.498;2024-02-28T01:41:56;6.90;99.90
23149;DHT22;11743;51.228;22.498;2024-02-28T01:42:18;6.90;99.90
23149;DHT22;11743;51.228;22.498;2024-02-28T01:42:40;6.90;99.90
23149;DHT22;11743;51.228;22.498;2024-02-28T01:43:03;6.90;99.90
23149;DHT22;11743;51.228;22.498;2024-02-28T01:43:26;6.80;99.90
23149;DHT22;11743;51.228;22.498;2024-02-28T01:43:48;6.90;99.90
23149;DHT22;11743;51.228;22.498;2024-02-28T01:44:09;6.90;99.90
23149;DHT22;11743;51.228;22.498;2024-02-28T01:44:34;6.80;99.90
23149;DHT22;11743;51.228;22.498;2024-02-28T01:44:59;6.80;99.90
23149;DHT22;11743;51.228;22.498;2024-02-28T01:45:21;6.80;99.90
23149;DHT22;11743;51.228;22.498;2024-02-28T01:45:42;6.90;99.90
23149;DHT22;11743;51.228;22.498;2024-02-28T01:46:27;6.90;99.90
23149;DHT22;11743;51.228;22.498;2024-02-28T01:46:49;6.90;99.90
23149;DHT22;11743;51.228;22.498;2024-02-28T01:47:11;6.80;99.90
23149;DHT22;11743;51.228;22.498;2024-02-28T01:47:33;6.90;99.90
23149;DHT22;11743;51.228;22.498;2024-02-28T01:47:55;6.90;99.90
23149;DHT22;11743;51.228;22.498;2024-02-28T01:48:17;6.80;99.90
23149;DHT22;11743;51.228;22.498;2024-02-28T01:48:39;6.80;99.90
23149;DHT22;11743;51.228;22.498;2024-02-28T01:49:01;6.80;99.90
23149;DHT22;11743;51.228;22.498;2024-02-28T01:49:23;6.80;99.90
23149;DHT22;11743;51.228;22.498;2024-02-28T01:49:46;6.80;99.90
23149;DHT22;11743;51.228;22.498;2024-02-28T01:50:10;7.40;99.90
23149;DHT22;11743;51.228;22.498;2024-02-28T01:50:32;6.80;99.90
23149;DHT22;11743;51.228;22.498;2024-02-28T01:50:54;6.80;99.90
23149;DHT22;11743;51.228;22.498;2024-02-28T01:51:16;7.60;99.90
23149;DHT22;11743;51.228;22.498;2024-02-28T01:51:39;6.80;99.90
23149;DHT22;11743;51.228;22.498;2024-02-28T01:52:02;6.80;99.90
23149;DHT22;11743;51.228;22.498;2024-02-28T01:52:25;6.80;99.90
23149;DHT22;11743;51.228;22.498;2024-02-28T01:52:47;6.80;99.90
23149;DHT22;11743;51.228;22.498;2024-02-28T01:53:09;6.70;99.90
23149;DHT22;11743;51.228;22.498;2024-02-28T01:53:31;6.70;99.90
23149;DHT22;11743;51.228;22.498;2024-02-28T01:53:54;6.70;99.90
23149;DHT22;11743;51.228;22.498;2024-02-28T01:54:16;6.80;99.90
23149;DHT22;11743;51.228;22.498;2024-02-28T01:54:40;6.80;99.90
23149;DHT22;11743;51.228;22.498;2024-02-28T01:55:03;6.80;99.90
23149;DHT22;11743;51.228;22.498;2024-02-28T01:55:27;6.80;99.90
23149;DHT22;11743;51.228;22.498;2024-02-28T01:55:49;6.80;99.90
23149;DHT22;11743;51.228;22.498;2024-02-28T01:56:14;6.80;99.90
23149;DHT22;11743;51.228;22.498;2024-02-28T01:56:39;6.80;99.90
23149;DHT22;11743;51.228;22.498;2024-02-28T01:57:02;6.80;99.90
23149;DHT22;11743;51.228;22.498;2024-02-28T01:57:24;6.70;99.90
23149;DHT22;11743;51.228;22.498;2024-02-28T01:57:47;6.80;99.90
23149;DHT22;11743;51.228;22.498;2024-02-28T01:58:09;6.70;99.90
23149;DHT22;11743;51.228;22.498;2024-02-28T01:58:31;6.70;99.90
23149;DHT22;11743;51.228;22.498;2024-02-28T01:58:54;6.80;99.90
23149;DHT22;11743;51.228;22.498;2024-02-28T01:59:17;6.90;99.90
23149;DHT22;11743;51.228;22.498;2024-02-28T01:59:39;6.80;99.90
23149;DHT22;11743;51.228;22.498;2024-02-28T02:00:02;6.80;99.90
23149;DHT22;11743;51.228;22.498;2024-02-28T02:00:25;6.80;99.90
23149;DHT22;11743;51.228;22.498;2024-02-28T02:00:48;6.80;99.90
23149;DHT22;11743;51.228;22.498;2024-02-28T02:01:12;6.80;99.90
23149;DHT22;11743;51.228;22.498;2024-02-28T02:01:33;6.80;99.90
23149;DHT22;11743;51.228;22.498;2024-02-28T02:01:55;6.80;99.90
23149;DHT22;11743;51.228;22.498;2024-02-28T02:02:17;6.80;99.90
23149;DHT22;11743;51.228;22.498;2024-02-28T02:02:39;6.80;99.90
23149;DHT22;11743;51.228;22.498;2024-02-28T02:03:01;6.80;99.90
23149;DHT22;11743;51.228;22.498;2024-02-28T02:03:23;6.80;99.90
23149;DHT22;11743;51.228;22.498;2024-02-28T02:03:45;6.80;99.90
23149;DHT22;11743;51.228;22.498;2024-02-28T02:04:07;6.80;99.90
23149;DHT22;11743;51.228;22.498;2024-02-28T02:04:28;6.80;99.90
23149;DHT22;11743;51.228;22.498;2024-02-28T02:04:50;6.80;99.90
23149;DHT22;11743;51.228;22.498;2024-02-28T02:05:14;6.80;99.90
23149;DHT22;11743;51.228;22.498;2024-02-28T02:05:37;6.80;99.90
23149;DHT22;11743;51.228;22.498;2024-02-28T02:06:00;6.80;99.90
23149;DHT22;11743;51.228;22.498;2024-02-28T02:06:22;6.80;99.90
23149;DHT22;11743;51.228;22.498;2024-02-28T02:06:44;6.80;99.90
23149;DHT22;11743;51.228;22.498;2024-02-28T02:07:07;6.80;99.90
23149;DHT22;11743;51.228;22.498;2024-02-28T02:07:29;6.80;99.90
23149;DHT22;11743;51.228;22.498;2024-02-28T02:07:52;6.80;99.90
23149;DHT22;11743;51.228;22.498;2024-02-28T02:08:15;6.90;99.90
23149;DHT22;11743;51.228;22.498;2024-02-28T02:08:37;6.80;99.90
23149;DHT22;11743;51.228;22.498;2024-02-28T02:09:00;6.90;99.90
23149;DHT22;11743;51.228;22.498;2024-02-28T02:09:22;6.80;99.90
23149;DHT22;11743;51.228;22.498;2024-02-28T02:09:44;7.00;99.90
23149;DHT22;11743;51.228;22.498;2024-02-28T02:10:06;6.80;99.90
23149;DHT22;11743;51.228;22.498;2024-02-28T02:10:30;6.90;99.90
23149;DHT22;11743;51.228;22.498;2024-02-28T02:10:52;6.80;99.90
23149;DHT22;11743;51.228;22.498;2024-02-28T02:11:16;6.80;99.90
23149;DHT22;11743;51.228;22.498;2024-02-28T02:11:40;6.90;99.90
23149;DHT22;11743;51.228;22.498;2024-02-28T02:12:02;6.90;99.90
23149;DHT22;11743;51.228;22.498;2024-02-28T02:12:24;6.90;99.90
23149;DHT22;11743;51.228;22.498;2024-02-28T02:12:46;6.90;99.90
23149;DHT22;11743;51.228;22.498;2024-02-28T02:13:07;7.00;99.90
23149;DHT22;11743;51.228;22.498;2024-02-28T02:13:29;6.90;99.90
23149;DHT22;11743;51.228;22.498;2024-02-28T02:13:52;6.90;99.90
23149;DHT22;11743;51.228;22.498;2024-02-28T02:14:14;6.90;99.90
23149;DHT22;11743;51.228;22.498;2024-02-28T02:14:36;6.90;99.90
23149;DHT22;11743;51.228;22.498;2024-02-28T02:14:57;6.90;99.90
23149;DHT22;11743;51.228;22.498;2024-02-28T02:15:19;6.90;99.90
23149;DHT22;11743;51.228;22.498;2024-02-28T02:15:41;6.90;99.90
23149;DHT22;11743;51.228;22.498;2024-02-28T02:16:03;7.00;99.90
23149;DHT22;11743;51.228;22.498;2024-02-28T02:16:25;7.00;99.90
23149;DHT22;11743;51.228;22.498;2024-02-28T02:16:48;7.00;99.90
23149;DHT22;11743;51.228;22.498;2024-02-28T02:17:10;7.00;99.90
23149;DHT22;11743;51.228;22.498;2024-02-28T02:17:32;7.20;99.90
23149;DHT22;11743;51.228;22.498;2024-02-28T02:17:53;7.00;99.90
23149;DHT22;11743;51.228;22.498;2024-02-28T02:18:15;7.00;99.90
23149;DHT22;11743;51.228;22.498;2024-02-28T02:18:37;7.00;99.90
23149;DHT22;11743;51.228;22.498;2024-02-28T02:19:16;7.00;99.90
23149;DHT22;11743;51.228;22.498;2024-02-28T02:19:56;7.00;99.90
23149;DHT22;11743;51.228;22.498;2024-02-28T02:20:38;7.00;99.90
23149;DHT22;11743;51.228;22.498;2024-02-28T02:21:26;7.00;99.90
23149;DHT22;11743;51.228;22.498;2024-02-28T02:21:53;7.00;99.90
23149;DHT22;11743;51.228;22.498;2024-02-28T02:22:18;7.00;99.90